Time;durP1;ratioP1;P1;durP2;ratioP2;P2;SDS_P1;SDS_P2;PMS_P1;PMS_P2;Temp;Humidity;BMP_temperature;BMP_pressure;BME280_temperature;BME280_humidity;BME280_pressure;Samples;Min_cycle;Max_cycle;Signal;HPM_P1;HPM_P2
2021/10/04 00:02:06;;;;;;;1.00;0.50;;;15.00;99.90;;;;;;5068367;28;20028;-48
2021/10/04 00:04:32;;;;;;;1.30;0.50;;;15.00;99.90;;;;;;5068181;28;20390;-44
2021/10/04 00:06:57;;;;;;;0.55;0.40;;;15.00;99.90;;;;;;5067640;28;20029;-47
2021/10/04 00:09:24;;;;;;;0.88;0.57;;;15.00;99.90;;;;;;5068172;28;20170;-46
2021/10/04 00:11:49;;;;;;;0.75;0.60;;;14.90;99.90;;;;;;5068262;28;20316;-47
2021/10/04 00:14:15;;;;;;;0.95;0.30;;;14.90;99.90;;;;;;5051946;28;20029;-45
2021/10/04 00:16:40;;;;;;;1.10;0.43;;;14.90;99.90;;;;;;5062500;28;20175;-45
2021/10/04 00:19:06;;;;;;;0.55;0.40;;;14.90;99.90;;;;;;5068183;28;20033;-48
2021/10/04 00:21:32;;;;;;;0.75;0.50;;;14.90;99.90;;;;;;5068188;28;20104;-45
2021/10/04 00:23:57;;;;;;;0.52;0.32;;;14.90;99.90;;;;;;5066756;28;20021;-46
2021/10/04 00:26:23;;;;;;;0.65;0.52;;;14.90;99.90;;;;;;5068029;28;20457;-48
2021/10/04 00:28:48;;;;;;;0.50;0.50;;;14.90;99.90;;;;;;5067338;28;20024;-46
2021/10/04 00:31:14;;;;;;;1.98;0.50;;;14.90;99.90;;;;;;5067879;28;20020;-46
2021/10/04 00:33:40;;;;;;;0.55;0.55;;;14.80;99.90;;;;;;5067935;28;20033;-46
2021/10/04 00:36:05;;;;;;;1.20;0.50;;;14.80;99.90;;;;;;5067728;28;20039;-44
2021/10/04 00:38:31;;;;;;;1.08;0.68;;;14.80;99.90;;;;;;5067311;28;20141;-47
2021/10/04 00:40:58;;;;;;;0.32;0.32;;;14.80;99.90;;;;;;5067882;28;20027;-45
2021/10/04 00:43:23;;;;;;;5.28;0.50;;;14.80;99.90;;;;;;5058943;28;20465;-48
2021/10/04 00:45:49;;;;;;;0.57;0.50;;;14.80;99.90;;;;;;5059380;28;20175;-46
2021/10/04 00:48:15;;;;;;;1.02;0.40;;;14.80;99.90;;;;;;5067234;28;20090;-45
2021/10/04 00:50:41;;;;;;;2.80;0.50;;;14.80;99.90;;;;;;5067777;28;20052;-47
2021/10/04 00:53:06;;;;;;;0.90;0.55;;;14.80;99.90;;;;;;5068069;28;20029;-46
2021/10/04 00:55:32;;;;;;;0.82;0.63;;;14.80;99.90;;;;;;5071415;28;20032;-48
2021/10/04 00:57:59;;;;;;;0.52;0.40;;;14.80;99.90;;;;;;5070579;28;20033;-46
2021/10/04 01:00:27;;;;;;;1.17;0.60;;;14.80;99.90;;;;;;5071460;28;20032;-46
2021/10/04 01:02:53;;;;;;;2.38;0.60;;;14.80;99.90;;;;;;5071388;28;20347;-45
2021/10/04 01:05:19;;;;;;;0.82;0.40;;;14.70;99.90;;;;;;5071319;28;20031;-45
2021/10/04 01:07:44;;;;;;;1.23;0.60;;;14.70;99.90;;;;;;5070536;28;20048;-45
2021/10/04 01:10:11;;;;;;;0.90;0.50;;;14.70;99.90;;;;;;5071196;28;20063;-47
2021/10/04 01:12:45;;;;;;;2.25;0.32;;;14.70;99.90;;;;;;5063593;28;20039;-46
2021/10/04 01:15:12;;;;;;;0.30;0.30;;;14.70;99.90;;;;;;5051280;28;20075;-48
2021/10/04 01:17:39;;;;;;;0.75;0.50;;;14.70;99.90;;;;;;5050460;28;20024;-46
2021/10/04 01:20:25;;;;;;;0.68;0.50;;;14.60;99.90;;;;;;5049704;28;20574;-46
2021/10/04 01:22:52;;;;;;;1.60;0.60;;;14.60;99.90;;;;;;5050855;28;20036;-46
2021/10/04 01:25:19;;;;;;;0.98;0.70;;;14.60;99.90;;;;;;5050788;28;20111;-45
2021/10/04 01:27:46;;;;;;;1.52;0.95;;;14.60;99.90;;;;;;5049974;28;20025;-47
2021/10/04 01:30:13;;;;;;;0.60;0.50;;;14.60;99.90;;;;;;5050823;28;20021;-48
2021/10/04 01:32:39;;;;;;;2.95;0.82;;;14.60;99.90;;;;;;5050839;28;20029;-45
2021/10/04 01:35:06;;;;;;;0.90;0.82;;;14.60;99.90;;;;;;5050876;28;20035;-45
2021/10/04 01:37:32;;;;;;;0.63;0.63;;;14.50;99.90;;;;;;5037178;28;20030;-45
2021/10/04 01:39:58;;;;;;;1.77;1.00;;;14.50;99.90;;;;;;5030699;28;20048;-45
2021/10/04 01:42:23;;;;;;;1.33;1.00;;;14.50;99.90;;;;;;5030554;28;20061;-45
2021/10/04 01:44:49;;;;;;;1.60;1.00;;;14.40;99.90;;;;;;5056622;28;20576;-47
2021/10/04 01:47:15;;;;;;;1.85;1.02;;;14.40;99.90;;;;;;5069686;28;20111;-46
2021/10/04 01:49:43;;;;;;;2.47;1.10;;;14.40;99.90;;;;;;5070389;28;20048;-45
2021/10/04 01:52:10;;;;;;;1.75;1.05;;;14.30;99.90;;;;;;5070556;28;20028;-46
2021/10/04 01:54:35;;;;;;;1.80;1.27;;;14.30;99.90;;;;;;5070449;28;20051;-47
2021/10/04 01:57:00;;;;;;;1.73;1.05;;;14.30;99.90;;;;;;5069834;28;20981;-46
2021/10/04 01:59:26;;;;;;;2.60;1.45;;;14.30;99.90;;;;;;5070658;28;20393;-47
2021/10/04 02:01:51;;;;;;;1.83;1.20;;;14.30;99.90;;;;;;5070585;28;20029;-45
2021/10/04 02:04:17;;;;;;;2.00;1.33;;;14.20;99.90;;;;;;5070963;28;20032;-45
2021/10/04 02:06:42;;;;;;;1.60;1.20;;;14.20;99.90;;;;;;5068966;28;20036;-46
2021/10/04 02:09:08;;;;;;;1.40;1.25;;;14.20;99.90;;;;;;5070238;28;20024;-45
2021/10/04 02:11:33;;;;;;;1.92;1.25;;;14.20;99.90;;;;;;5070068;28;20025;-48
2021/10/04 02:13:59;;;;;;;2.50;1.77;;;14.10;99.90;;;;;;5061548;28;20051;-45
2021/10/04 02:16:24;;;;;;;1.35;1.25;;;14.10;99.90;;;;;;5063636;28;20033;-45
2021/10/04 02:18:50;;;;;;;2.65;1.30;;;14.10;99.90;;;;;;5069376;28;20409;-45
2021/10/04 02:21:16;;;;;;;2.88;1.25;;;14.10;99.90;;;;;;5070042;28;20032;-44
2021/10/04 02:23:42;;;;;;;1.92;1.58;;;14.10;99.90;;;;;;5069852;28;20040;-46
2021/10/04 02:26:07;;;;;;;1.88;1.38;;;14.10;99.90;;;;;;5069618;28;20444;-44
2021/10/04 02:28:33;;;;;;;1.70;1.52;;;14.10;99.90;;;;;;5068963;28;20054;-44
2021/10/04 02:30:58;;;;;;;1.95;1.35;;;14.10;99.90;;;;;;5069603;28;20033;-45
2021/10/04 02:33:24;;;;;;;2.67;1.48;;;14.10;99.90;;;;;;5069383;28;20078;-44
2021/10/04 02:35:49;;;;;;;1.75;1.65;;;14.00;99.90;;;;;;5069400;28;20037;-45
2021/10/04 02:38:15;;;;;;;1.55;1.33;;;14.00;99.90;;;;;;5068781;28;20120;-46
2021/10/04 02:40:41;;;;;;;2.35;1.25;;;14.00;99.90;;;;;;5069524;28;20444;-44
2021/10/04 02:43:08;;;;;;;1.30;1.20;;;14.00;99.90;;;;;;5064773;28;20074;-45
2021/10/04 02:45:34;;;;;;;1.33;1.23;;;14.00;99.90;;;;;;5061099;28;20021;-45
2021/10/04 02:48:02;;;;;;;2.15;1.60;;;14.00;99.90;;;;;;5068961;28;20489;-44
2021/10/04 02:50:29;;;;;;;2.30;1.23;;;14.00;99.90;;;;;;5069492;28;20021;-45
2021/10/04 02:52:55;;;;;;;2.20;1.30;;;14.00;99.90;;;;;;5068331;28;20047;-44
2021/10/04 02:55:21;;;;;;;2.03;1.60;;;14.00;99.90;;;;;;5069477;28;20517;-45
2021/10/04 02:57:46;;;;;;;1.27;1.17;;;14.00;99.90;;;;;;5066950;28;20375;-44
2021/10/04 03:00:15;;;;;;;2.28;1.27;;;14.00;99.90;;;;;;5068949;28;20039;-45
2021/10/04 03:02:41;;;;;;;1.33;1.13;;;14.00;99.90;;;;;;5068920;28;20032;-45
2021/10/04 03:05:07;;;;;;;1.13;1.02;;;14.00;99.90;;;;;;5068910;28;20447;-46
2021/10/04 03:07:33;;;;;;;3.03;1.48;;;14.00;99.90;;;;;;5066923;28;20031;-46
2021/10/04 03:09:58;;;;;;;3.25;1.10;;;14.00;99.90;;;;;;5067551;28;20020;-49
2021/10/04 03:12:24;;;;;;;1.27;1.10;;;14.00;99.90;;;;;;5069238;28;20112;-45
2021/10/04 03:14:49;;;;;;;2.75;1.63;;;14.00;99.90;;;;;;5055102;28;20059;-45
2021/10/04 03:17:15;;;;;;;4.40;1.63;;;14.00;99.90;;;;;;5068184;28;20056;-46
2021/10/04 03:19:41;;;;;;;2.85;1.23;;;14.00;99.90;;;;;;5068678;28;20047;-45
2021/10/04 03:22:06;;;;;;;4.05;1.50;;;14.00;99.90;;;;;;5068553;28;20075;-47
2021/10/04 03:24:33;;;;;;;1.30;1.20;;;14.00;99.90;;;;;;5069030;28;20079;-46
2021/10/04 03:26:59;;;;;;;1.75;1.17;;;14.00;99.90;;;;;;5066811;28;20020;-46
2021/10/04 03:29:25;;;;;;;2.33;1.50;;;14.00;99.90;;;;;;5068358;28;20094;-45
2021/10/04 03:31:51;;;;;;;2.10;1.30;;;14.00;99.90;;;;;;5068878;28;20513;-46
2021/10/04 03:34:17;;;;;;;3.80;1.42;;;14.00;99.90;;;;;;5067803;28;20361;-45
2021/10/04 03:36:44;;;;;;;2.25;1.42;;;13.90;99.90;;;;;;5068682;28;20029;-45
2021/10/04 03:39:09;;;;;;;1.55;1.23;;;13.90;99.90;;;;;;5069027;28;20032;-47
2021/10/04 03:41:35;;;;;;;3.88;1.45;;;13.90;99.90;;;;;;5069012;28;20050;-45
2021/10/04 03:44:01;;;;;;;2.30;1.88;;;13.90;99.90;;;;;;5063534;28;20013;-45
2021/10/04 03:46:26;;;;;;;2.58;1.42;;;13.80;99.90;;;;;;5062476;28;20027;-45
2021/10/04 03:48:52;;;;;;;2.22;1.27;;;13.80;99.90;;;;;;5068152;28;20398;-46
2021/10/04 03:51:18;;;;;;;1.60;1.27;;;13.80;99.90;;;;;;5068377;28;20100;-48
2021/10/04 03:53:44;;;;;;;4.30;1.63;;;13.80;99.90;;;;;;5068335;28;20060;-45
2021/10/04 03:56:09;;;;;;;8.80;1.70;;;13.80;99.90;;;;;;5068074;28;20406;-46
2021/10/04 03:58:35;;;;;;;1.30;1.17;;;13.80;99.90;;;;;;5067550;28;20029;-45
2021/10/04 04:01:00;;;;;;;1.88;1.30;;;13.80;99.90;;;;;;5068438;28;20047;-47
2021/10/04 04:03:26;;;;;;;2.28;1.30;;;13.80;99.90;;;;;;5068333;28;20474;-46
2021/10/04 04:05:51;;;;;;;1.75;1.33;;;13.80;99.90;;;;;;5066851;28;20066;-45
2021/10/04 04:08:17;;;;;;;1.55;1.35;;;13.70;99.90;;;;;;5066125;28;20028;-46
2021/10/04 04:10:42;;;;;;;3.38;1.33;;;13.70;99.90;;;;;;5068262;28;20538;-46
2021/10/04 04:13:08;;;;;;;2.80;2.00;;;13.70;99.90;;;;;;5058645;28;20028;-45
2021/10/04 04:15:33;;;;;;;2.80;1.77;;;13.70;99.90;;;;;;5052060;28;20031;-48
2021/10/04 04:17:59;;;;;;;4.35;1.63;;;13.70;99.90;;;;;;5064981;28;20437;-47
2021/10/04 04:20:25;;;;;;;2.20;1.75;;;13.70;99.90;;;;;;5067876;28;20051;-46
2021/10/04 04:22:50;;;;;;;3.92;1.60;;;13.60;99.90;;;;;;5066659;28;20492;-45
2021/10/04 04:25:16;;;;;;;1.85;1.58;;;13.60;99.90;;;;;;5068330;28;20028;-46
2021/10/04 04:27:42;;;;;;;3.85;1.67;;;13.60;99.90;;;;;;5067330;28;20013;-45
2021/10/04 04:30:09;;;;;;;1.73;1.33;;;13.50;99.90;;;;;;5071547;28;20021;-49
2021/10/04 04:32:35;;;;;;;4.22;1.70;;;13.40;99.90;;;;;;5071811;28;20032;-44
2021/10/04 04:35:05;;;;;;;2.08;1.70;;;13.40;99.90;;;;;;5071964;28;20033;-45
2021/10/04 04:37:35;;;;;;;1.58;1.20;;;13.40;99.90;;;;;;5071528;28;20032;-47
2021/10/04 04:40:01;;;;;;;2.28;1.60;;;13.40;99.90;;;;;;5072011;28;20024;-46
2021/10/04 04:42:27;;;;;;;1.70;1.50;;;13.40;99.90;;;;;;5071533;28;20036;-46
2021/10/04 04:44:53;;;;;;;5.88;1.70;;;13.40;99.90;;;;;;5053609;28;20107;-46
2021/10/04 04:47:18;;;;;;;4.85;1.60;;;13.40;99.90;;;;;;5064201;28;20461;-46
2021/10/04 04:49:44;;;;;;;3.35;1.65;;;13.30;99.90;;;;;;5071477;28;20047;-45
2021/10/04 04:52:09;;;;;;;2.13;1.52;;;13.30;99.90;;;;;;5070568;28;20032;-47
2021/10/04 04:54:35;;;;;;;4.57;2.20;;;13.20;99.90;;;;;;5071396;28;20485;-47
2021/10/04 04:57:01;;;;;;;6.13;2.10;;;13.20;99.90;;;;;;5070550;28;20079;-45
2021/10/04 04:59:27;;;;;;;2.65;1.95;;;13.20;99.90;;;;;;5071051;28;20077;-45
2021/10/04 05:01:53;;;;;;;2.13;1.38;;;13.10;99.90;;;;;;5068434;28;20790;-46
2021/10/04 05:04:19;;;;;;;4.47;2.10;;;13.10;99.90;;;;;;5049812;28;20209;-47
2021/10/04 05:06:44;;;;;;;5.13;2.00;;;13.10;99.90;;;;;;5056297;28;20517;-46
2021/10/04 05:09:10;;;;;;;4.20;1.85;;;13.00;99.90;;;;;;5047072;28;20112;-46
2021/10/04 05:11:35;;;;;;;3.40;1.73;;;13.10;99.90;;;;;;5048100;28;20398;-47
2021/10/04 05:14:01;;;;;;;3.90;2.25;;;13.10;99.90;;;;;;5045128;28;20033;-44
2021/10/04 05:16:27;;;;;;;3.53;1.83;;;13.10;99.90;;;;;;5043136;28;20036;-45
2021/10/04 05:18:52;;;;;;;2.22;1.60;;;13.10;99.90;;;;;;5045629;28;20036;-47
2021/10/04 05:21:18;;;;;;;1.88;1.65;;;13.10;99.90;;;;;;5045822;28;20383;-46
2021/10/04 05:23:43;;;;;;;6.43;1.98;;;13.10;99.90;;;;;;5050424;28;20147;-45
2021/10/04 05:26:09;;;;;;;2.63;1.60;;;13.10;99.90;;;;;;5046224;28;20029;-45
2021/10/04 05:28:34;;;;;;;2.13;1.50;;;13.10;99.90;;;;;;5044653;28;20060;-45
2021/10/04 05:31:00;;;;;;;3.28;1.63;;;13.10;99.90;;;;;;5049350;28;20636;-49
2021/10/04 05:33:26;;;;;;;3.10;1.60;;;13.20;99.90;;;;;;5041640;28;20044;-46
2021/10/04 05:35:52;;;;;;;9.20;2.55;;;13.20;99.90;;;;;;5042504;28;20374;-45
2021/10/04 05:38:17;;;;;;;4.88;1.77;;;13.20;99.90;;;;;;5039760;28;20463;-48
2021/10/04 05:40:43;;;;;;;2.13;1.40;;;13.20;99.90;;;;;;5041478;28;20699;-45
2021/10/04 05:43:09;;;;;;;2.25;1.70;;;13.20;99.90;;;;;;5031437;28;20446;-45
2021/10/04 05:45:34;;;;;;;3.70;1.55;;;13.20;99.90;;;;;;5048393;28;20422;-47
2021/10/04 05:48:00;;;;;;;2.25;1.67;;;13.10;99.90;;;;;;5044381;28;20528;-45
2021/10/04 05:50:25;;;;;;;1.90;1.48;;;13.20;99.90;;;;;;5049702;28;20130;-45
2021/10/04 05:52:52;;;;;;;2.03;1.10;;;13.20;99.90;;;;;;5040906;28;20102;-44
2021/10/04 05:55:18;;;;;;;2.15;1.50;;;13.20;99.90;;;;;;5062013;28;20036;-48
2021/10/04 05:57:44;;;;;;;3.95;1.63;;;13.30;99.90;;;;;;5069996;28;20120;-49
2021/10/04 06:00:12;;;;;;;4.18;1.70;;;13.30;99.90;;;;;;5070238;28;20100;-46
2021/10/04 06:02:37;;;;;;;5.05;1.80;;;13.30;99.90;;;;;;5069369;28;20028;-45
2021/10/04 06:05:08;;;;;;;1.85;1.50;;;13.30;99.90;;;;;;5062458;28;20023;-46
2021/10/04 06:07:34;;;;;;;2.90;1.67;;;13.30;99.90;;;;;;5041303;28;20053;-45
2021/10/04 06:09:59;;;;;;;6.05;1.80;;;13.40;99.90;;;;;;5049632;28;20072;-47
2021/10/04 06:12:27;;;;;;;2.92;1.75;;;13.40;99.90;;;;;;5046519;28;20037;-48
2021/10/04 06:14:57;;;;;;;2.33;1.70;;;13.40;99.90;;;;;;5045578;28;20045;-46
2021/10/04 06:17:23;;;;;;;4.50;1.60;;;13.40;99.90;;;;;;5046116;28;20406;-45
2021/10/04 06:19:49;;;;;;;3.58;1.42;;;13.40;99.90;;;;;;5041918;28;20446;-48
2021/10/04 06:22:15;;;;;;;2.60;1.42;;;13.40;99.90;;;;;;5058426;28;20033;-47
2021/10/04 06:24:41;;;;;;;4.30;1.80;;;13.40;99.90;;;;;;5051417;28;20040;-46
2021/10/04 06:27:06;;;;;;;5.38;2.10;;;13.50;99.90;;;;;;5049770;28;20052;-44
2021/10/04 06:29:32;;;;;;;3.05;1.60;;;13.40;99.90;;;;;;5065943;28;20036;-46
2021/10/04 06:31:57;;;;;;;4.30;1.42;;;13.40;99.90;;;;;;5068324;28;20060;-45
2021/10/04 06:34:23;;;;;;;5.55;2.10;;;13.50;99.90;;;;;;5069497;28;20033;-45
2021/10/04 06:36:48;;;;;;;2.95;1.65;;;13.50;99.90;;;;;;5043923;28;20442;-46
2021/10/04 06:39:14;;;;;;;4.93;1.88;;;13.50;99.90;;;;;;5047117;28;20036;-48
2021/10/04 06:41:41;;;;;;;3.45;1.42;;;13.60;99.90;;;;;;5037600;28;20559;-45
2021/10/04 06:44:08;;;;;;;2.50;1.45;;;13.60;99.90;;;;;;5045587;28;20019;-48
2021/10/04 06:46:34;;;;;;;2.83;2.08;;;13.60;99.90;;;;;;5061195;28;20016;-45
2021/10/04 06:49:00;;;;;;;2.53;1.40;;;13.70;99.90;;;;;;5067765;28;20506;-45
2021/10/04 06:51:25;;;;;;;7.50;1.50;;;13.70;99.90;;;;;;5069157;28;20021;-45
2021/10/04 06:53:51;;;;;;;5.25;1.45;;;13.80;99.90;;;;;;5069407;28;20029;-45
2021/10/04 06:56:16;;;;;;;2.13;1.17;;;14.00;99.90;;;;;;5069217;28;20021;-45
2021/10/04 06:58:42;;;;;;;1.85;1.55;;;14.00;99.90;;;;;;5068666;28;20029;-46
2021/10/04 07:01:07;;;;;;;4.50;1.38;;;14.00;99.90;;;;;;5069373;28;20112;-45
